Terminal Aerodrome Forecast
Issued by NWS

Home | Current Version | Previous Version | Text Only | Print | Product List | Glossary On
Versions: 1 2 3 4 5 6 7 8 9 10 11 12 13 14 15 16 17
693
FTUS41 KBTV 192331
TAFSLK
TAF
KSLK 192331Z 2000/2024 30004KT P6SM VCSH OVC035
      TEMPO 2001/2003 -SHSN BKN028
     FM200300 30004KT P6SM OVC028
     FM201200 32004KT P6SM BKN035
     FM201600 36005KT P6SM SKC=

USA.gov is the U.S. government's official web portal to all federal, state and local government web resources and services.